createdAt,value
2022-08-23T00:02:22.967Z,100.00
2022-08-23T00:05:03.500Z,100.00
2022-08-23T00:07:42.233Z,100.00
2022-08-23T00:10:12.207Z,100.00
2022-08-23T00:12:40.465Z,100.00
2022-08-23T00:15:10.308Z,100.00
2022-08-23T00:17:37.754Z,100.00
2022-08-23T00:20:10.024Z,100.00
2022-08-23T00:22:40.220Z,100.00
2022-08-23T00:25:09.994Z,100.00
2022-08-23T00:27:37.012Z,100.00
2022-08-23T00:30:07.361Z,100.00
2022-08-23T00:32:37.823Z,100.00
2022-08-23T00:35:05.751Z,100.00
2022-08-23T00:37:34.014Z,100.00
2022-08-23T00:40:02.115Z,100.00
2022-08-23T00:42:56.994Z,100.00
2022-08-23T00:46:19.213Z,100.00
2022-08-23T00:48:46.755Z,100.00
2022-08-23T00:51:30.588Z,100.00
2022-08-23T00:54:00.437Z,100.00
2022-08-23T00:56:31.358Z,100.00
2022-08-23T00:58:58.634Z,100.00
2022-08-23T01:01:26.416Z,100.00
2022-08-23T01:04:04.879Z,100.00
2022-08-23T01:06:42.503Z,100.00
2022-08-23T01:09:13.877Z,100.00
2022-08-23T01:11:56.567Z,100.00
2022-08-23T01:14:43.810Z,100.00
2022-08-23T01:17:22.754Z,100.00
2022-08-23T01:19:57.793Z,100.00
2022-08-23T01:22:35.281Z,100.00
2022-08-23T01:25:08.453Z,100.00
2022-08-23T01:27:42.412Z,100.00
2022-08-23T01:30:16.227Z,100.00
2022-08-23T01:32:58.415Z,100.00
2022-08-23T01:35:43.405Z,100.00
2022-08-23T01:38:12.313Z,100.00
2022-08-23T01:40:40.652Z,100.00
2022-08-23T01:43:09.151Z,100.00
2022-08-23T01:45:39.833Z,100.00
2022-08-23T01:48:08.842Z,100.00
2022-08-23T01:53:23.936Z,100.00
2022-08-23T01:55:51.115Z,100.00
2022-08-23T01:58:20.262Z,100.00
2022-08-23T02:00:47.535Z,100.00
2022-08-23T02:03:16.013Z,100.00
2022-08-23T02:05:43.360Z,100.00
2022-08-23T02:08:30.487Z,100.00
2022-08-23T02:10:59.446Z,100.00
2022-08-23T02:13:27.233Z,100.00
2022-08-23T02:15:55.301Z,100.00
2022-08-23T02:18:23.685Z,100.00
2022-08-23T02:20:52.726Z,100.00
2022-08-23T02:23:21.171Z,100.00
2022-08-23T02:25:48.435Z,100.00
2022-08-23T02:28:15.487Z,100.00
2022-08-23T02:30:45.425Z,100.00
2022-08-23T02:33:14.900Z,100.00
2022-08-23T02:35:44.330Z,100.00
2022-08-23T02:38:13.047Z,100.00
2022-08-23T02:40:41.546Z,100.00
2022-08-23T02:43:08.784Z,100.00
2022-08-23T02:45:37.443Z,100.00
2022-08-23T02:48:05.175Z,100.00
2022-08-23T02:50:41.104Z,100.00
2022-08-23T02:53:08.658Z,100.00
2022-08-23T02:55:35.792Z,100.00
2022-08-23T02:58:02.885Z,100.00
2022-08-23T03:00:30.059Z,100.00
2022-08-23T03:02:57.478Z,100.00
2022-08-23T03:05:25.233Z,100.00
2022-08-23T03:07:52.298Z,100.00
2022-08-23T03:10:19.283Z,100.00
2022-08-23T03:12:52.770Z,100.00
2022-08-23T03:15:19.892Z,100.00
2022-08-23T03:17:47.019Z,100.00
2022-08-23T03:20:14.208Z,100.00
2022-08-23T03:22:48.382Z,100.00
2022-08-23T03:25:22.823Z,100.00
2022-08-23T03:28:08.970Z,100.00
2022-08-23T03:30:40.465Z,100.00
2022-08-23T03:33:08.816Z,100.00
2022-08-23T03:35:35.964Z,100.00
2022-08-23T03:38:04.224Z,100.00
2022-08-23T03:40:31.319Z,100.00
2022-08-23T03:42:58.316Z,100.00
2022-08-23T03:45:28.316Z,100.00
2022-08-23T03:47:55.908Z,100.00
2022-08-23T03:50:23.934Z,100.00
2022-08-23T03:52:51.802Z,100.00
2022-08-23T03:55:18.911Z,100.00
2022-08-23T03:57:49.259Z,100.00
2022-08-23T04:00:20.458Z,100.00
2022-08-23T04:02:50.076Z,100.00
2022-08-23T04:05:17.530Z,100.00
2022-08-23T04:07:50.573Z,100.00
2022-08-23T04:10:20.226Z,100.00
2022-08-23T04:12:50.168Z,100.00
2022-08-23T04:15:19.790Z,100.00
2022-08-23T04:17:48.129Z,100.00
2022-08-23T04:20:16.913Z,100.00
2022-08-23T04:23:04.173Z,100.00
2022-08-23T04:25:36.806Z,100.00
2022-08-23T04:28:05.878Z,100.00
2022-08-23T04:30:34.135Z,100.00
2022-08-23T04:33:03.140Z,100.00
2022-08-23T04:35:39.094Z,100.00
2022-08-23T04:38:24.270Z,100.00
2022-08-23T04:41:13.393Z,100.00
2022-08-23T04:43:42.234Z,100.00
2022-08-23T04:46:15.547Z,100.00
2022-08-23T04:48:45.957Z,100.00
2022-08-23T04:51:13.397Z,100.00
2022-08-23T04:53:41.708Z,100.00
2022-08-23T04:56:38.870Z,100.00
2022-08-23T04:59:07.867Z,100.00
2022-08-23T05:01:42.954Z,100.00
2022-08-23T05:04:10.904Z,100.00
2022-08-23T05:06:40.063Z,100.00
2022-08-23T05:09:07.045Z,100.00
2022-08-23T05:11:35.698Z,100.00
2022-08-23T05:14:03.020Z,100.00
2022-08-23T05:16:30.614Z,100.00
2022-08-23T05:19:03.116Z,100.00
2022-08-23T05:21:32.580Z,100.00
2022-08-23T05:24:00.696Z,100.00
2022-08-23T05:26:30.943Z,100.00
2022-08-23T05:28:57.958Z,100.00
2022-08-23T05:31:30.668Z,100.00
2022-08-23T05:34:00.987Z,100.00
2022-08-23T05:36:47.632Z,100.00
2022-08-23T05:39:33.001Z,100.00
2022-08-23T05:42:11.527Z,100.00
2022-08-23T05:44:38.574Z,100.00
2022-08-23T05:47:12.278Z,100.00
2022-08-23T05:50:15.722Z,100.00
2022-08-23T05:52:42.944Z,100.00
2022-08-23T05:55:10.911Z,100.00
2022-08-23T05:57:40.805Z,100.00
2022-08-23T06:00:14.381Z,100.00
2022-08-23T06:02:49.382Z,100.00
2022-08-23T06:05:19.809Z,100.00
2022-08-23T06:07:49.559Z,100.00
2022-08-23T06:10:20.951Z,100.00
2022-08-23T06:13:03.638Z,100.00
2022-08-23T06:15:31.665Z,100.00
2022-08-23T06:17:59.767Z,100.00
2022-08-23T06:20:27.253Z,100.00
2022-08-23T06:23:00.270Z,100.00
2022-08-23T06:25:29.150Z,100.00
2022-08-23T06:28:07.599Z,100.00
2022-08-23T06:30:40.066Z,100.00
2022-08-23T06:33:21.165Z,100.00
2022-08-23T06:36:13.863Z,100.00
2022-08-23T06:39:14.141Z,100.00
2022-08-23T06:42:13.302Z,100.00
2022-08-23T06:44:50.996Z,100.00
2022-08-23T06:47:27.094Z,100.00
2022-08-23T06:49:57.858Z,100.00
2022-08-23T06:52:49.056Z,100.00
2022-08-23T06:55:36.634Z,100.00
2022-08-23T06:58:15.305Z,100.00
2022-08-23T07:01:35.068Z,100.00
2022-08-23T07:04:20.046Z,100.00
2022-08-23T07:07:11.337Z,100.00
2022-08-23T07:09:40.904Z,100.00
2022-08-23T07:12:08.450Z,100.00
2022-08-23T07:14:38.554Z,100.00
2022-08-23T07:17:05.780Z,100.00
2022-08-23T07:19:34.864Z,100.00
2022-08-23T07:22:04.337Z,100.00
2022-08-23T07:24:33.847Z,100.00
2022-08-23T07:27:07.320Z,100.00
2022-08-23T07:29:38.314Z,100.00
2022-08-23T07:32:06.202Z,100.00
2022-08-23T07:34:36.040Z,100.00
2022-08-23T07:37:04.416Z,100.00
2022-08-23T07:39:38.394Z,100.00
2022-08-23T07:42:22.697Z,100.00
2022-08-23T07:44:53.814Z,100.00
2022-08-23T07:47:23.085Z,100.00
2022-08-23T07:49:51.412Z,100.00
2022-08-23T07:52:18.759Z,100.00
2022-08-23T07:54:48.696Z,100.00
2022-08-23T07:57:42.214Z,100.00
2022-08-23T08:00:32.287Z,100.00
2022-08-23T08:03:14.093Z,100.00
2022-08-23T08:06:07.317Z,100.00
2022-08-23T08:08:34.591Z,100.00
2022-08-23T08:11:01.787Z,100.00
2022-08-23T08:13:29.729Z,100.00
2022-08-23T08:15:57.208Z,100.00
2022-08-23T08:18:27.459Z,100.00
2022-08-23T08:21:16.528Z,100.00
2022-08-23T08:24:00.830Z,100.00
2022-08-23T08:26:47.152Z,100.00
2022-08-23T08:29:14.916Z,100.00
2022-08-23T08:31:46.766Z,100.00
2022-08-23T08:34:14.330Z,100.00
2022-08-23T08:36:43.485Z,100.00
2022-08-23T08:39:24.075Z,100.00
2022-08-23T08:42:19.528Z,100.00
2022-08-23T08:44:58.225Z,100.00
2022-08-23T08:47:41.160Z,100.00
2022-08-23T08:50:16.398Z,100.00
2022-08-23T08:53:03.974Z,100.00
2022-08-23T08:56:12.799Z,100.00
2022-08-23T08:58:51.390Z,100.00
2022-08-23T09:01:21.928Z,100.00
2022-08-23T09:03:52.375Z,100.00
2022-08-23T09:06:28.529Z,100.00
2022-08-23T09:09:15.065Z,100.00
2022-08-23T09:11:58.722Z,100.00
2022-08-23T09:14:28.548Z,100.00
2022-08-23T09:17:05.845Z,100.00
2022-08-23T09:19:37.523Z,100.00
2022-08-23T09:22:13.655Z,100.00
2022-08-23T09:24:42.051Z,100.00
2022-08-23T09:27:22.596Z,100.00
2022-08-23T09:30:01.346Z,100.00
2022-08-23T09:32:34.242Z,100.00
2022-08-23T09:35:14.670Z,100.00
2022-08-23T09:37:57.899Z,100.00
2022-08-23T09:40:38.631Z,100.00
2022-08-23T09:43:14.762Z,94.50
2022-08-23T09:46:04.552Z,94.05
2022-08-23T09:48:44.304Z,85.42
2022-08-23T09:51:34.993Z,86.51
2022-08-23T09:54:23.326Z,84.62
2022-08-23T09:56:59.863Z,87.27
2022-08-23T09:59:27.462Z,85.52
2022-08-23T10:02:02.576Z,90.28
2022-08-23T10:04:37.416Z,90.91
2022-08-23T10:07:40.370Z,92.59
2022-08-23T10:10:17.835Z,93.31
2022-08-23T10:12:46.653Z,96.63
2022-08-23T10:15:15.708Z,99.33
2022-08-23T10:17:47.425Z,98.77
2022-08-23T10:20:29.362Z,98.98
2022-08-23T10:23:07.083Z,97.38
2022-08-23T10:25:55.247Z,93.95
2022-08-23T10:28:46.592Z,93.72
2022-08-23T10:31:35.881Z,95.61
2022-08-23T10:34:48.469Z,100.00
2022-08-23T10:38:02.743Z,100.00
2022-08-23T10:40:41.474Z,100.00
2022-08-23T10:43:26.197Z,100.00
2022-08-23T10:46:00.407Z,100.00
2022-08-23T10:48:43.986Z,100.00
2022-08-23T10:51:22.616Z,100.00
2022-08-23T10:53:57.141Z,100.00
2022-08-23T10:56:24.456Z,100.00
2022-08-23T10:59:00.077Z,100.00
2022-08-23T11:01:53.072Z,100.00
2022-08-23T11:04:41.261Z,100.00
2022-08-23T11:07:34.385Z,100.00
2022-08-23T11:10:26.596Z,100.00
2022-08-23T11:13:01.743Z,100.00
2022-08-23T11:15:58.794Z,97.96
2022-08-23T11:18:36.135Z,97.72
2022-08-23T11:21:09.912Z,97.24
2022-08-23T11:23:58.616Z,97.66
2022-08-23T11:26:27.659Z,99.20
2022-08-23T11:29:10.851Z,97.98
2022-08-23T11:31:51.180Z,95.05
2022-08-23T11:34:29.654Z,94.00
2022-08-23T11:37:30.505Z,91.92
2022-08-23T11:40:09.486Z,92.63
2022-08-23T11:42:37.789Z,89.50
2022-08-23T11:45:28.741Z,92.86
2022-08-23T11:48:16.537Z,91.91
2022-08-23T11:51:11.921Z,91.52
2022-08-23T11:53:41.910Z,93.55
2022-08-23T11:56:16.383Z,91.21
2022-08-23T11:59:15.379Z,94.14
2022-08-23T12:01:44.978Z,90.69
2022-08-23T12:04:26.149Z,90.10
2022-08-23T12:07:02.119Z,90.01
2022-08-23T12:09:29.446Z,92.69
2022-08-23T12:11:56.409Z,93.86
2022-08-23T12:14:32.244Z,92.96
2022-08-23T12:17:04.191Z,93.07
2022-08-23T12:19:40.551Z,91.50
2022-08-23T12:22:36.985Z,91.79
2022-08-23T12:25:08.209Z,92.40
2022-08-23T12:27:41.351Z,91.87
2022-08-23T12:30:11.101Z,91.62
2022-08-23T12:32:50.289Z,90.22
2022-08-23T12:35:30.403Z,91.22
2022-08-23T12:38:23.292Z,90.48
2022-08-23T12:40:54.618Z,88.63
2022-08-23T12:43:23.725Z,88.96
2022-08-23T12:45:56.931Z,87.52
2022-08-23T12:48:28.009Z,87.73
2022-08-23T12:50:57.074Z,87.51
2022-08-23T12:53:29.618Z,83.54
2022-08-23T12:56:04.702Z,82.25
2022-08-23T12:58:34.131Z,80.63
2022-08-23T13:01:03.823Z,77.43
2022-08-23T13:03:39.806Z,81.19
2022-08-23T13:06:11.879Z,82.56
2022-08-23T13:08:42.926Z,82.10
2022-08-23T13:11:21.936Z,84.15
2022-08-23T13:13:49.419Z,83.64
2022-08-23T13:16:27.980Z,85.17
2022-08-23T13:19:10.342Z,87.31
2022-08-23T13:21:40.006Z,88.43
2022-08-23T13:24:38.376Z,89.75
2022-08-23T13:27:26.492Z,88.88
2022-08-23T13:29:57.667Z,90.51
2022-08-23T13:32:49.679Z,90.27
2022-08-23T13:35:45.643Z,89.48
2022-08-23T13:38:20.834Z,89.38
2022-08-23T13:40:59.547Z,90.12
2022-08-23T13:43:32.551Z,91.27
2022-08-23T13:46:32.425Z,91.76
2022-08-23T13:49:12.049Z,95.08
2022-08-23T13:51:40.924Z,92.77
2022-08-23T13:54:10.924Z,95.12
2022-08-23T13:56:48.395Z,94.62
2022-08-23T13:59:31.267Z,94.25
2022-08-23T14:02:09.160Z,92.77
2022-08-23T14:04:36.342Z,92.81
2022-08-23T14:07:03.816Z,92.65
2022-08-23T14:09:30.933Z,89.16
2022-08-23T14:12:03.109Z,88.64
2022-08-23T14:14:33.402Z,86.80
2022-08-23T14:17:02.805Z,86.80
2022-08-23T14:22:19.434Z,87.23
2022-08-23T14:24:46.747Z,84.93
2022-08-23T14:27:14.735Z,86.16
2022-08-23T14:29:41.908Z,84.21
2022-08-23T14:32:08.944Z,84.83
2022-08-23T14:34:36.022Z,83.70
2022-08-23T14:39:50.423Z,86.92
2022-08-23T14:42:20.801Z,86.62
2022-08-23T14:44:48.362Z,85.89
2022-08-23T14:47:15.681Z,89.52
2022-08-23T14:49:42.853Z,86.40
2022-08-23T14:52:11.839Z,86.53
2022-08-23T14:54:39.168Z,92.65
2022-08-23T14:57:06.284Z,89.29
2022-08-23T14:59:33.411Z,87.27
2022-08-23T15:02:01.265Z,86.49
2022-08-23T15:04:34.731Z,86.05
2022-08-23T15:07:19.607Z,87.07
2022-08-23T15:09:54.608Z,87.97
2022-08-23T15:15:14.133Z,91.43
2022-08-23T15:17:51.936Z,88.44
2022-08-23T15:20:20.933Z,88.12
2022-08-23T15:22:55.403Z,89.28
2022-08-23T15:25:25.071Z,89.89
2022-08-23T15:27:52.968Z,88.74
2022-08-23T15:30:21.986Z,89.82
2022-08-23T15:32:52.147Z,90.02
2022-08-23T15:35:22.725Z,89.44
2022-08-23T15:37:50.478Z,91.23
2022-08-23T15:40:17.657Z,92.20
2022-08-23T15:42:44.752Z,93.92
2022-08-23T15:45:11.964Z,93.17
2022-08-23T15:48:07.199Z,93.27
2022-08-23T15:50:35.485Z,92.66
2022-08-23T15:53:02.853Z,95.43
2022-08-23T15:55:32.779Z,94.95
2022-08-23T15:58:00.389Z,94.10
2022-08-23T16:00:28.006Z,93.60
2022-08-23T16:03:19.198Z,93.99
2022-08-23T16:05:44.987Z,91.77
2022-08-23T16:08:17.558Z,95.91
2022-08-23T16:10:44.733Z,97.02
2022-08-23T16:13:11.780Z,96.76
2022-08-23T16:15:40.084Z,96.04
2022-08-23T16:18:08.189Z,97.91
2022-08-23T16:20:35.356Z,96.91
2022-08-23T16:23:02.513Z,100.00
2022-08-23T16:25:29.821Z,100.00
2022-08-23T16:27:57.046Z,98.97
2022-08-23T16:30:24.462Z,95.88
2022-08-23T16:32:51.519Z,98.00
2022-08-23T16:35:18.634Z,96.53
2022-08-23T16:37:45.578Z,96.53
2022-08-23T16:40:13.198Z,99.27
2022-08-23T16:42:40.648Z,100.00
2022-08-23T16:45:08.800Z,100.00
2022-08-23T16:47:41.136Z,100.00
2022-08-23T16:50:09.578Z,100.00
2022-08-23T16:52:37.088Z,100.00
2022-08-23T16:55:07.242Z,100.00
2022-08-23T16:57:34.474Z,100.00
2022-08-23T17:00:02.280Z,100.00
2022-08-23T17:02:33.456Z,100.00
2022-08-23T17:05:02.437Z,100.00
2022-08-23T17:07:29.575Z,100.00
2022-08-23T17:09:56.800Z,100.00
2022-08-23T17:12:23.756Z,100.00
2022-08-23T17:14:51.531Z,100.00
2022-08-23T17:17:18.659Z,100.00
2022-08-23T17:19:45.846Z,100.00
2022-08-23T17:22:13.557Z,100.00
2022-08-23T17:24:40.907Z,100.00
2022-08-23T17:27:08.124Z,100.00
2022-08-23T17:29:37.632Z,100.00
2022-08-23T17:32:04.925Z,100.00
2022-08-23T17:34:31.934Z,100.00
2022-08-23T17:37:00.108Z,100.00
2022-08-23T17:39:29.409Z,100.00
2022-08-23T17:41:58.041Z,100.00
2022-08-23T17:44:25.191Z,100.00
2022-08-23T17:46:53.188Z,100.00
2022-08-23T17:49:20.551Z,100.00
2022-08-23T17:51:47.670Z,100.00
2022-08-23T17:54:15.894Z,100.00
2022-08-23T17:56:49.936Z,100.00
2022-08-23T17:59:21.735Z,100.00
2022-08-23T18:01:48.982Z,100.00
2022-08-23T18:04:16.092Z,100.00
2022-08-23T18:06:43.170Z,100.00
2022-08-23T18:09:10.384Z,100.00
2022-08-23T18:11:37.737Z,100.00
2022-08-23T18:14:05.489Z,100.00
2022-08-23T18:16:35.641Z,100.00
2022-08-23T18:19:05.472Z,100.00
2022-08-23T18:21:33.225Z,100.00
2022-08-23T18:24:00.440Z,100.00
2022-08-23T18:26:46.483Z,100.00
2022-08-23T18:29:14.640Z,100.00
2022-08-23T18:31:44.218Z,100.00
2022-08-23T18:34:11.979Z,100.00
2022-08-23T18:36:39.201Z,100.00
2022-08-23T18:39:08.248Z,100.00
2022-08-23T18:41:35.651Z,100.00
2022-08-23T18:44:05.741Z,100.00
2022-08-23T18:46:39.066Z,100.00
2022-08-23T18:49:07.407Z,100.00
2022-08-23T18:51:34.485Z,100.00
2022-08-23T18:54:01.982Z,100.00
2022-08-23T18:56:29.032Z,100.00
2022-08-23T18:58:56.129Z,100.00
2022-08-23T19:01:35.918Z,100.00
2022-08-23T19:04:05.054Z,100.00
2022-08-23T19:06:32.380Z,100.00
2022-08-23T19:09:01.117Z,100.00
2022-08-23T19:11:29.479Z,100.00
2022-08-23T19:13:59.192Z,100.00
2022-08-23T19:16:26.872Z,100.00
2022-08-23T19:18:55.204Z,100.00
2022-08-23T19:21:24.516Z,100.00
2022-08-23T19:23:54.316Z,100.00
2022-08-23T19:26:31.770Z,100.00
2022-08-23T19:29:00.244Z,100.00
2022-08-23T19:31:33.524Z,100.00
2022-08-23T19:34:03.665Z,100.00
2022-08-23T19:36:45.661Z,100.00
2022-08-23T19:39:14.373Z,100.00
2022-08-23T19:41:42.002Z,100.00
2022-08-23T19:44:09.623Z,100.00
2022-08-23T19:46:42.026Z,100.00
2022-08-23T19:49:10.527Z,100.00
2022-08-23T19:51:38.491Z,100.00
2022-08-23T19:54:10.877Z,100.00
2022-08-23T19:56:51.918Z,100.00
2022-08-23T19:59:25.487Z,100.00
2022-08-23T20:01:53.742Z,100.00
2022-08-23T20:04:22.288Z,100.00
2022-08-23T20:06:49.483Z,100.00
2022-08-23T20:09:17.743Z,100.00
2022-08-23T20:11:45.210Z,100.00
2022-08-23T20:14:12.493Z,100.00
2022-08-23T20:16:41.622Z,100.00
2022-08-23T20:19:10.113Z,100.00
2022-08-23T20:21:38.753Z,100.00
2022-08-23T20:24:07.900Z,100.00
2022-08-23T20:26:41.219Z,100.00
2022-08-23T20:29:10.932Z,100.00
2022-08-23T20:31:46.446Z,100.00
2022-08-23T20:34:13.796Z,100.00
2022-08-23T20:36:40.757Z,100.00
2022-08-23T20:39:08.058Z,100.00
2022-08-23T20:41:37.582Z,100.00
2022-08-23T20:44:05.769Z,100.00
2022-08-23T20:46:33.371Z,100.00
2022-08-23T20:49:00.463Z,100.00
2022-08-23T20:51:28.846Z,100.00
2022-08-23T20:53:57.001Z,100.00
2022-08-23T20:56:25.332Z,100.00
2022-08-23T20:58:52.737Z,100.00
2022-08-23T21:01:20.020Z,100.00
2022-08-23T21:03:47.092Z,100.00
2022-08-23T21:06:19.945Z,100.00
2022-08-23T21:08:53.864Z,100.00
2022-08-23T21:11:22.792Z,100.00
2022-08-23T21:13:49.912Z,100.00
2022-08-23T21:16:18.176Z,100.00
2022-08-23T21:18:45.607Z,100.00
2022-08-23T21:21:13.645Z,100.00
2022-08-23T21:23:40.861Z,100.00
2022-08-23T21:26:09.103Z,100.00
2022-08-23T21:28:36.624Z,100.00
2022-08-23T21:31:09.016Z,100.00
2022-08-23T21:33:39.975Z,100.00
2022-08-23T21:36:11.535Z,100.00
2022-08-23T21:38:39.582Z,100.00
2022-08-23T21:41:11.056Z,100.00
2022-08-23T21:43:39.057Z,100.00
2022-08-23T21:46:07.407Z,100.00
2022-08-23T21:48:34.660Z,100.00
2022-08-23T21:51:01.806Z,100.00
2022-08-23T21:53:28.968Z,100.00
2022-08-23T21:55:55.950Z,100.00
2022-08-23T21:58:25.950Z,100.00
2022-08-23T22:00:53.007Z,100.00
2022-08-23T22:03:20.187Z,100.00
2022-08-23T22:05:48.105Z,100.00
2022-08-23T22:08:17.124Z,100.00
2022-08-23T22:10:57.269Z,100.00
2022-08-23T22:13:28.316Z,100.00
2022-08-23T22:15:55.480Z,100.00
2022-08-23T22:18:22.589Z,100.00
2022-08-23T22:20:49.656Z,100.00
2022-08-23T22:23:17.421Z,100.00
2022-08-23T22:25:44.623Z,100.00
2022-08-23T22:28:11.732Z,100.00
2022-08-23T22:30:38.912Z,100.00
2022-08-23T22:33:06.203Z,100.00
2022-08-23T22:35:35.258Z,100.00
2022-08-23T22:38:13.689Z,100.00
2022-08-23T22:40:51.860Z,100.00
2022-08-23T22:43:20.694Z,100.00
2022-08-23T22:45:58.786Z,100.00
2022-08-23T22:48:29.827Z,100.00
2022-08-23T22:51:06.547Z,100.00
2022-08-23T22:53:35.896Z,100.00
2022-08-23T22:56:04.216Z,100.00
2022-08-23T22:58:31.970Z,100.00
2022-08-23T23:00:59.412Z,100.00
2022-08-23T23:03:31.860Z,100.00
2022-08-23T23:05:58.836Z,100.00
2022-08-23T23:08:27.775Z,100.00
2022-08-23T23:11:05.763Z,100.00
2022-08-23T23:13:34.220Z,100.00
2022-08-23T23:16:11.536Z,100.00
2022-08-23T23:18:40.384Z,100.00
2022-08-23T23:21:08.566Z,100.00
2022-08-23T23:23:37.510Z,100.00
2022-08-23T23:26:08.195Z,100.00
2022-08-23T23:28:35.375Z,100.00
2022-08-23T23:31:03.518Z,100.00
2022-08-23T23:33:30.566Z,100.00
2022-08-23T23:35:57.577Z,100.00
2022-08-23T23:38:27.901Z,100.00
2022-08-23T23:40:55.059Z,100.00
2022-08-23T23:43:22.027Z,100.00
2022-08-23T23:45:49.054Z,100.00
2022-08-23T23:48:16.588Z,100.00
2022-08-23T23:50:45.028Z,100.00
2022-08-23T23:53:14.590Z,100.00
2022-08-23T23:55:42.511Z,100.00
2022-08-23T23:58:10.317Z,100.00
